Time;durP1;ratioP1;P1;durP2;ratioP2;P2;SDS_P1;SDS_P2;PMS_P1;PMS_P2;Temp;Humidity;BMP_temperature;BMP_pressure;BME280_temperature;BME280_humidity;BME280_pressure;Samples;Min_cycle;Max_cycle;Signal;HPM_P1;HPM_P2
2023/02/21 02:15:09;;;;;;;3.30;2.00;;;;;;;4.67;82.28;97193.45;107455;1259;73891;-38
2023/02/21 02:17:52;;;;;;;2.10;1.80;;;;;;;4.66;82.31;97198.42;107536;1253;62391;-38
2023/02/21 02:20:46;;;;;;;2.90;1.90;;;;;;;4.69;82.07;97200.84;107589;1253;61413;-38
2023/02/21 02:23:40;;;;;;;3.00;1.50;;;;;;;4.72;81.82;97202.39;107599;1253;75179;-38
2023/02/21 02:26:30;;;;;;;2.30;1.70;;;;;;;4.73;81.75;97203.92;107551;1253;69896;-38
2023/02/21 02:29:45;;;;;;;3.50;1.70;;;;;;;4.71;81.69;97197.86;107489;1253;73848;-38
2023/02/21 02:32:21;;;;;;;2.50;1.80;;;;;;;4.76;81.42;97203.95;107175;1253;60127;-38
2023/02/21 02:34:52;;;;;;;3.70;2.30;;;;;;;4.75;81.57;97210.38;107578;1253;60455;-38
2023/02/21 02:37:24;;;;;;;3.90;1.90;;;;;;;4.75;81.14;97213.45;107490;1253;73329;-38
2023/02/21 02:39:59;;;;;;;3.00;1.80;;;;;;;4.77;80.98;97210.70;107533;1253;69896;-37
2023/02/21 02:43:02;;;;;;;5.80;2.00;;;;;;;4.82;80.72;97209.29;107585;1253;74042;-38
2023/02/21 02:45:37;;;;;;;6.50;2.10;;;;;;;4.81;80.29;97208.59;107544;1253;60562;-38
2023/02/21 02:48:12;;;;;;;5.00;2.30;;;;;;;4.75;79.95;97203.33;107511;1253;61230;-38
2023/02/21 02:50:41;;;;;;;4.10;2.00;;;;;;;4.79;79.67;97201.59;107551;1253;75127;-38
2023/02/21 02:53:10;;;;;;;;;;;;;;;4.79;78.91;97198.67;107622;1253;70321;-38
2023/02/21 02:55:41;;;;;;;8.00;2.10;;;;;;;4.77;78.45;97199.13;107551;1253;73557;-38
2023/02/21 02:58:11;;;;;;;;;;;;;;;4.70;78.25;97208.28;107550;1253;60152;-38
2023/02/21 03:00:50;;;;;;;5.30;2.30;;;;;;;4.69;77.82;97202.83;107586;1253;59688;-38
2023/02/21 03:03:58;;;;;;;5.20;2.00;;;;;;;4.69;77.58;97213.88;107613;1253;75145;-38
2023/02/21 03:06:44;;;;;;;6.20;1.90;;;;;;;4.68;77.40;97218.86;107352;1253;66907;-38
2023/02/21 03:09:19;;;;;;;3.60;1.80;;;;;;;4.66;77.45;97220.20;107584;1253;74259;-38
2023/02/21 03:11:59;;;;;;;6.00;2.20;;;;;;;4.67;77.51;97222.67;107444;1253;62293;-38
2023/02/21 03:14:51;;;;;;;7.20;1.90;;;;;;;4.74;77.41;97222.80;107552;1253;60357;-38
2023/02/21 03:17:20;;;;;;;5.20;2.10;;;;;;;4.75;77.27;97222.43;107495;1253;75095;-36
2023/02/21 03:19:48;;;;;;;7.50;2.30;;;;;;;4.73;77.15;97219.27;107505;1253;70033;-37
2023/02/21 03:22:19;;;;;;;6.30;2.00;;;;;;;4.73;77.33;97222.48;107451;1253;73867;-37
2023/02/21 03:24:48;;;;;;;8.50;2.60;;;;;;;4.75;77.28;97220.66;107530;1254;60428;-37
2023/02/21 03:27:16;;;;;;;6.00;2.50;;;;;;;4.76;77.29;97216.91;107534;1253;60284;-37
2023/02/21 03:30:10;;;;;;;5.20;2.00;;;;;;;4.73;77.46;97216.42;107544;1253;74719;-37
2023/02/21 03:32:41;;;;;;;2.90;1.60;;;;;;;4.66;77.71;97218.90;107624;1254;69612;-37
2023/02/21 03:35:10;;;;;;;5.90;2.20;;;;;;;4.65;77.65;97224.48;107624;1254;72654;-37
2023/02/21 03:37:51;;;;;;;5.90;2.20;;;;;;;4.67;77.78;97231.49;107615;1254;61596;-37
2023/02/21 03:40:31;;;;;;;7.60;2.20;;;;;;;4.65;77.87;97234.77;107587;1254;61271;-37
2023/02/21 03:43:02;;;;;;;4.80;2.00;;;;;;;4.63;78.01;97243.80;107565;1254;74949;-37
2023/02/21 03:45:34;;;;;;;6.80;1.80;;;;;;;4.67;78.54;97239.77;107645;1254;67839;-38
2023/02/21 03:48:15;;;;;;;6.20;1.80;;;;;;;4.70;78.81;97235.82;107608;1254;71843;-37
2023/02/21 03:50:57;;;;;;;8.00;1.80;;;;;;;4.63;78.83;97245.27;107601;1254;61607;-37
2023/02/21 03:53:28;;;;;;;3.10;1.40;;;;;;;4.56;79.35;97245.96;107606;1254;61240;-37
2023/02/21 03:55:57;;;;;;;4.00;1.70;;;;;;;4.52;79.97;97242.87;107653;1253;73172;-37
2023/02/21 03:58:33;;;;;;;4.20;1.80;;;;;;;4.53;80.24;97242.58;107616;1254;69888;-38
2023/02/21 04:05:24;;;;;;;4.70;2.00;;;;;;;4.45;80.81;97244.19;106415;1264;62527;-40
2023/02/21 04:07:54;;;;;;;4.80;2.00;;;;;;;4.47;80.71;97231.86;106578;1265;61252;-40
2023/02/21 04:10:23;;;;;;;5.10;1.90;;;;;;;4.46;80.68;97228.94;106702;1265;74780;-40
2023/02/21 04:12:52;;;;;;;8.60;2.00;;;;;;;4.43;80.57;97223.92;106730;1264;70011;-40
2023/02/21 04:15:25;;;;;;;4.20;1.60;;;;;;;4.40;80.57;97225.91;106699;1264;73677;-40
2023/02/21 04:17:53;;;;;;;5.00;1.80;;;;;;;4.42;79.98;97228.68;106767;1269;60790;-40
2023/02/21 04:20:21;;;;;;;5.00;1.60;;;;;;;4.47;79.36;97225.89;106753;1264;61398;-40
2023/02/21 04:22:54;;;;;;;4.10;1.60;;;;;;;4.47;78.80;97223.59;106740;1266;74784;-41
2023/02/21 04:25:32;;;;;;;7.40;2.00;;;;;;;4.45;78.63;97224.34;106709;1267;69785;-41
2023/02/21 04:28:06;;;;;;;3.70;1.60;;;;;;;4.43;78.75;97228.01;106710;1266;73661;-41
2023/02/21 04:30:35;;;;;;;4.10;1.20;;;;;;;4.49;78.81;97225.91;106736;1269;62641;-40
2023/02/21 04:33:04;;;;;;;3.30;1.50;;;;;;;4.52;78.55;97227.00;106765;1264;61350;-41
2023/02/21 04:35:33;;;;;;;4.90;1.80;;;;;;;4.51;78.55;97230.28;106724;1265;74794;-40
2023/02/21 04:38:07;;;;;;;4.70;1.50;;;;;;;4.50;78.43;97237.95;106657;1269;69641;-41
2023/02/21 04:40:36;;;;;;;6.20;2.00;;;;;;;4.52;78.20;97230.75;106578;1266;73889;-42
2023/02/21 04:43:06;;;;;;;6.10;1.60;;;;;;;4.56;78.18;97233.40;106582;1266;60442;-41
2023/02/21 04:45:34;;;;;;;7.00;1.80;;;;;;;4.55;77.92;97231.17;106621;1265;60576;-39
2023/02/21 04:48:06;;;;;;;3.20;1.50;;;;;;;4.51;78.22;97221.77;106652;1264;75043;-40
2023/02/21 04:50:34;;;;;;;4.50;1.40;;;;;;;4.50;78.35;97223.30;106679;1269;68867;-40
2023/02/21 04:53:03;;;;;;;2.70;1.40;;;;;;;4.51;78.22;97217.79;106785;1265;73736;-40
2023/02/21 04:55:31;;;;;;;5.50;1.70;;;;;;;4.47;78.04;97223.89;106723;1270;61590;-40
2023/02/21 04:58:00;;;;;;;5.40;1.50;;;;;;;4.42;78.38;97229.89;106736;1265;61540;-40
2023/02/21 05:00:29;;;;;;;6.80;1.50;;;;;;;4.34;78.63;97234.20;106677;1266;74088;-40
2023/02/21 05:02:57;;;;;;;3.30;1.60;;;;;;;4.34;78.52;97237.98;106693;1269;69969;-40
2023/02/21 05:05:26;;;;;;;3.80;1.30;;;;;;;4.34;78.48;97238.12;106631;1270;73905;-40
2023/02/21 05:07:55;;;;;;;8.50;1.90;;;;;;;4.31;78.42;97241.29;106666;1264;62088;-41
2023/02/21 05:10:24;;;;;;;4.50;1.30;;;;;;;4.26;78.56;97239.73;106718;1268;61176;-40
2023/02/21 05:13:11;;;;;;;4.20;1.50;;;;;;;4.24;78.56;97244.23;106666;1267;74780;-41
2023/02/21 05:15:44;;;;;;;5.50;1.70;;;;;;;4.25;78.42;97239.88;106685;1269;69955;-41
2023/02/21 05:18:22;;;;;;;5.60;1.60;;;;;;;4.22;78.39;97236.01;106711;1269;73595;-40
2023/02/21 05:20:50;;;;;;;6.50;2.10;;;;;;;4.17;78.29;97241.86;106702;1269;60854;-41
2023/02/21 05:23:32;;;;;;;4.60;1.40;;;;;;;4.11;78.25;97239.36;106722;1263;61538;-40
2023/02/21 05:26:03;;;;;;;5.30;1.90;;;;;;;4.12;78.15;97242.96;106687;1269;74704;-40
2023/02/21 05:28:32;;;;;;;4.90;1.70;;;;;;;4.12;77.94;97242.04;106614;1270;68758;-40
2023/02/21 05:31:02;;;;;;;8.70;1.70;;;;;;;4.09;77.85;97244.01;106746;1264;73921;-40
2023/02/21 05:33:31;;;;;;;4.30;1.70;;;;;;;4.08;77.93;97248.13;106745;1264;61992;-40
2023/02/21 05:36:00;;;;;;;7.50;1.60;;;;;;;4.09;77.58;97248.52;106713;1264;60472;-40
2023/02/21 05:38:29;;;;;;;5.50;1.80;;;;;;;4.17;77.34;97249.73;106692;1263;75045;-40
2023/02/21 05:40:58;;;;;;;6.30;1.80;;;;;;;4.18;77.26;97253.21;106684;1264;69931;-40
2023/02/21 05:43:32;;;;;;;3.70;1.90;;;;;;;4.14;77.11;97258.70;106737;1263;71912;-42
2023/02/21 05:46:01;;;;;;;4.00;1.70;;;;;;;4.11;77.13;97258.04;106672;1264;62427;-41
2023/02/21 05:48:30;;;;;;;4.00;1.40;;;;;;;4.14;77.00;97255.08;106713;1269;61178;-40
2023/02/21 05:50:59;;;;;;;5.10;1.70;;;;;;;4.18;77.02;97251.69;106763;1263;75266;-40
2023/02/21 05:53:27;;;;;;;3.30;1.40;;;;;;;4.19;76.83;97252.06;106729;1269;69904;-40
2023/02/21 05:55:56;;;;;;;3.80;1.30;;;;;;;4.20;76.88;97259.05;106644;1269;72755;-40
2023/02/21 05:58:25;;;;;;;2.70;1.10;;;;;;;4.24;76.74;97260.31;106637;1269;62422;-40
2023/02/21 06:00:53;;;;;;;6.30;1.20;;;;;;;4.30;76.27;97257.92;106629;1267;61456;-40
2023/02/21 06:03:22;;;;;;;4.50;1.30;;;;;;;4.32;76.19;97264.45;106768;1267;73141;-40
2023/02/21 06:05:51;;;;;;;5.30;1.50;;;;;;;4.30;76.41;97265.67;106741;1268;69966;-40
2023/02/21 06:08:22;;;;;;;6.10;1.40;;;;;;;4.28;76.86;97267.18;106725;1270;74130;-40
2023/02/21 06:10:51;;;;;;;3.80;1.90;;;;;;;4.34;76.59;97266.08;106734;1267;60555;-40
2023/02/21 06:13:19;;;;;;;3.60;1.30;;;;;;;4.36;76.33;97265.58;106721;1267;61525;-40
2023/02/21 06:15:48;;;;;;;4.70;1.50;;;;;;;4.36;76.32;97267.95;106692;1266;75121;-40
2023/02/21 06:18:17;;;;;;;6.20;1.70;;;;;;;4.35;76.37;97269.17;106697;1267;70071;-40
2023/02/21 06:20:47;;;;;;;4.20;1.40;;;;;;;4.38;76.01;97267.73;106702;1268;72981;-40
2023/02/21 06:23:15;;;;;;;4.80;1.40;;;;;;;4.44;76.27;97264.71;106687;1267;61015;-40
2023/02/21 06:25:44;;;;;;;4.90;1.40;;;;;;;4.45;76.00;97266.27;106732;1270;60886;-40
2023/02/21 06:28:13;;;;;;;7.70;2.20;;;;;;;4.45;75.96;97265.73;106712;1266;74720;-40
2023/02/21 06:30:42;;;;;;;5.30;1.40;;;;;;;4.43;75.96;97271.69;106659;1264;68823;-40
2023/02/21 06:33:11;;;;;;;;;;;;;;;4.47;76.04;97269.83;106025;1267;1003022;-40
2023/02/21 06:35:40;;;;;;;3.00;1.50;;;;;;;4.48;76.17;97274.73;105955;1267;1003793;-40
2023/02/21 06:38:08;;;;;;;7.20;1.90;;;;;;;4.47;76.51;97280.71;106699;1264;61459;-40
2023/02/21 06:40:37;;;;;;;7.00;1.60;;;;;;;4.54;76.39;97287.58;106667;1267;75097;-40
2023/02/21 06:43:05;;;;;;;3.30;1.90;;;;;;;4.59;76.22;97285.02;106729;1264;69943;-40
2023/02/21 06:45:34;;;;;;;5.70;2.00;;;;;;;4.68;76.02;97286.78;106707;1267;73670;-40
2023/02/21 06:48:06;;;;;;;6.20;2.60;;;;;;;4.74;75.72;97283.08;106667;1268;61630;-40
2023/02/21 06:50:35;;;;;;;7.50;1.90;;;;;;;4.76;75.49;97286.63;106766;1269;61238;-40
2023/02/21 06:53:05;;;;;;;6.20;2.50;;;;;;;4.80;75.74;97282.90;106726;1267;75169;-40
2023/02/21 06:55:33;;;;;;;4.40;1.80;;;;;;;4.87;75.49;97290.63;106742;1269;70150;-40
2023/02/21 06:58:02;;;;;;;5.00;2.10;;;;;;;4.96;75.39;97291.92;106705;1267;73904;-40
2023/02/21 07:00:31;;;;;;;8.40;1.90;;;;;;;5.02;74.98;97285.89;106770;1264;60453;-40
2023/02/21 07:02:59;;;;;;;5.50;2.00;;;;;;;5.08;75.01;97287.23;106694;1266;60381;-40
2023/02/21 07:05:33;;;;;;;3.20;1.60;;;;;;;5.12;74.82;97286.05;106680;1267;74879;-40
2023/02/21 07:08:02;;;;;;;7.30;2.30;;;;;;;5.20;74.15;97281.04;106761;1267;68260;-40
2023/02/21 07:10:32;;;;;;;5.10;1.90;;;;;;;5.28;73.55;97276.94;106713;1267;73653;-40
2023/02/21 07:13:01;;;;;;;6.80;1.90;;;;;;;5.29;73.30;97270.27;106714;1264;61617;-40
2023/02/21 07:15:29;;;;;;;6.00;2.50;;;;;;;5.29;73.17;97274.11;106730;1264;61577;-41
2023/02/21 07:17:59;;;;;;;7.20;2.20;;;;;;;5.28;73.01;97277.24;106715;1267;74539;-41
2023/02/21 07:20:28;;;;;;;6.80;2.30;;;;;;;5.33;72.87;97273.28;106755;1270;70216;-41
2023/02/21 07:22:56;;;;;;;6.50;2.10;;;;;;;5.32;72.60;97258.16;106685;1263;73859;-40
2023/02/21 07:25:26;;;;;;;11.00;2.40;;;;;;;5.41;72.59;97267.64;106733;1265;60539;-40
2023/02/21 07:27:54;;;;;;;7.30;2.70;;;;;;;5.44;72.20;97258.38;106782;1264;60593;-40
2023/02/21 07:30:23;;;;;;;5.80;2.00;;;;;;;5.49;72.16;97254.63;106732;1269;75074;-41
2023/02/21 07:32:52;;;;;;;7.00;2.30;;;;;;;5.60;71.92;97255.61;106762;1268;69999;-40
2023/02/21 07:35:21;;;;;;;;;;;;;;;5.66;71.16;97243.51;106751;1265;75015;-40
2023/02/21 07:37:50;;;;;;;6.60;2.10;;;;;;;5.67;71.03;97250.19;106701;1267;60908;-41
2023/02/21 07:40:19;;;;;;;10.40;2.40;;;;;;;5.69;70.70;97247.19;106744;1265;61316;-40
2023/02/21 07:42:48;;;;;;;5.70;2.40;;;;;;;5.73;70.12;97244.37;106686;1264;75336;-40
2023/02/21 07:45:17;;;;;;;8.60;2.20;;;;;;;5.79;69.57;97245.85;106696;1264;70059;-42
2023/02/21 07:47:46;;;;;;;8.20;2.60;;;;;;;5.81;69.64;97252.00;106761;1264;73997;-41
2023/02/21 07:50:19;;;;;;;7.50;2.40;;;;;;;5.81;69.54;97254.63;106687;1265;61625;-40
2023/02/21 07:52:47;;;;;;;10.00;2.80;;;;;;;5.78;69.15;97252.53;106690;1264;61382;-40
2023/02/21 07:55:16;;;;;;;7.80;2.30;;;;;;;5.74;68.98;97251.75;106657;1267;75077;-41
2023/02/21 07:57:45;;;;;;;8.60;2.40;;;;;;;5.74;68.96;97258.66;106711;1264;70046;-40
2023/02/21 08:00:14;;;;;;;7.00;2.30;;;;;;;5.76;68.69;97253.98;106745;1269;73127;-40
2023/02/21 08:02:49;;;;;;;9.40;2.60;;;;;;;5.75;68.19;97254.30;106762;1264;60460;-40
2023/02/21 08:05:19;;;;;;;8.40;2.70;;;;;;;5.72;68.19;97255.42;106733;1270;61477;-41
2023/02/21 08:07:48;;;;;;;7.80;1.90;;;;;;;5.71;68.52;97258.27;106778;1264;74983;-40
2023/02/21 08:10:24;;;;;;;7.50;2.20;;;;;;;5.72;68.53;97256.04;106741;1269;69962;-41
2023/02/21 08:12:54;;;;;;;8.20;2.50;;;;;;;5.76;68.04;97256.05;106699;1263;73893;-40
2023/02/21 08:15:22;;;;;;;7.50;2.20;;;;;;;5.78;67.89;97262.90;106739;1267;61586;-40
2023/02/21 08:17:51;;;;;;;7.90;2.60;;;;;;;5.77;67.60;97261.90;106722;1264;60379;-40
2023/02/21 08:20:19;;;;;;;7.80;1.90;;;;;;;5.77;67.66;97260.14;106702;1265;75000;-41
2023/02/21 08:22:47;;;;;;;7.30;2.30;;;;;;;5.79;67.41;97258.30;106715;1267;69969;-40
2023/02/21 08:25:17;;;;;;;;;;;;;;;5.81;67.33;97262.54;105973;1267;1003651;-40
2023/02/21 08:27:52;;;;;;;5.90;2.00;;;;;;;5.84;66.92;97263.77;106718;1265;60814;-40
2023/02/21 08:30:21;;;;;;;7.50;2.50;;;;;;;5.88;66.90;97262.80;105984;1264;1003765;-40
2023/02/21 08:32:50;;;;;;;7.00;1.80;;;;;;;5.94;67.08;97263.61;106772;1265;75209;-40
2023/02/21 08:35:19;;;;;;;9.60;2.80;;;;;;;5.97;67.07;97261.23;106809;1267;69968;-40
2023/02/21 08:37:48;;;;;;;9.50;2.10;;;;;;;6.00;67.13;97254.94;106755;1263;72600;-40
2023/02/21 08:40:19;;;;;;;8.20;2.80;;;;;;;6.05;66.37;97255.35;106768;1269;62064;-40
2023/02/21 08:42:50;;;;;;;7.40;2.20;;;;;;;6.11;64.98;97252.28;106754;1264;61538;-41
2023/02/21 08:45:19;;;;;;;5.80;1.90;;;;;;;6.15;64.83;97247.06;106784;1264;75014;-41
2023/02/21 08:47:49;;;;;;;6.60;2.00;;;;;;;6.17;64.69;97253.23;106622;1264;212752;-41
2023/02/21 08:52:03;;;;;;;8.30;2.50;;;;;;;6.26;64.78;97246.31;104079;1291;612635;-40
2023/02/21 08:54:30;;;;;;;7.60;2.30;;;;;;;6.31;64.16;97243.94;107065;1259;60797;-40
2023/02/21 08:56:57;;;;;;;5.10;1.90;;;;;;;6.32;64.31;97249.17;107111;1258;60689;-40
2023/02/21 08:59:27;;;;;;;7.70;2.40;;;;;;;6.42;63.31;97238.20;107170;1258;73400;-41
2023/02/21 09:01:55;;;;;;;5.70;2.00;;;;;;;6.61;63.05;97230.89;107184;1262;68675;-40
2023/02/21 09:04:21;;;;;;;8.30;2.10;;;;;;;6.88;62.94;97234.35;106939;1260;220594;-41
2023/02/21 09:06:51;;;;;;;6.10;2.20;;;;;;;7.18;61.53;97225.21;107258;1257;60548;-41
2023/02/21 09:09:19;;;;;;;6.60;2.30;;;;;;;7.38;60.46;97229.55;107336;1259;61548;-41
2023/02/21 09:11:48;;;;;;;6.90;2.50;;;;;;;7.51;60.19;97231.91;107698;1254;73400;-40
2023/02/21 09:14:18;;;;;;;5.80;2.10;;;;;;;7.49;59.40;97231.39;107684;1254;68709;-41
2023/02/21 09:16:46;;;;;;;6.20;2.30;;;;;;;7.36;60.14;97238.49;107712;1253;73859;-41
2023/02/21 09:19:14;;;;;;;4.90;1.50;;;;;;;7.19;62.11;97254.77;107663;1254;60918;-41
2023/02/21 09:21:45;;;;;;;6.50;1.60;;;;;;;6.98;64.74;97276.51;107761;1254;59497;-41
2023/02/21 09:24:13;;;;;;;4.00;1.40;;;;;;;6.68;67.42;97267.27;107711;1254;74080;-41
2023/02/21 09:26:41;;;;;;;6.60;1.80;;;;;;;6.38;69.17;97261.71;107746;1254;69743;-41
2023/02/21 09:29:11;;;;;;;4.90;1.70;;;;;;;6.14;70.98;97271.42;107735;1254;71759;-41
2023/02/21 09:31:38;;;;;;;3.80;1.60;;;;;;;6.04;73.13;97270.41;107651;1253;61251;-41
2023/02/21 09:34:05;;;;;;;5.80;1.60;;;;;;;6.10;73.72;97270.73;107690;1252;61145;-41
2023/02/21 09:36:35;;;;;;;6.50;2.10;;;;;;;6.17;72.66;97261.60;107687;1254;74173;-41
2023/02/21 09:39:05;;;;;;;5.10;2.00;;;;;;;6.21;72.93;97262.14;107737;1254;68427;-40
2023/02/21 09:41:34;;;;;;;7.20;2.10;;;;;;;6.23;72.42;97253.92;107635;1253;73897;-41
2023/02/21 09:44:02;;;;;;;6.20;1.90;;;;;;;6.27;72.28;97251.23;107691;1253;62510;-41
2023/02/21 09:46:40;;;;;;;7.30;2.40;;;;;;;6.34;72.28;97248.86;107701;1254;59361;-41
2023/02/21 09:49:27;;;;;;;7.80;2.30;;;;;;;6.36;71.66;97249.33;107591;1254;74196;-40
2023/02/21 09:51:54;;;;;;;6.60;2.20;;;;;;;6.36;71.40;97249.41;107593;1254;68785;-41
2023/02/21 09:54:23;;;;;;;8.50;2.80;;;;;;;6.35;71.65;97250.48;107355;1254;73920;-40
2023/02/21 09:56:50;;;;;;;8.00;2.30;;;;;;;6.37;71.57;97247.02;107540;1254;62479;-40
2023/02/21 09:59:17;;;;;;;8.60;2.80;;;;;;;6.43;70.90;97250.88;107611;1253;61304;-40
2023/02/21 10:02:17;;;;;;;8.90;2.40;;;;;;;6.48;70.11;97243.73;107405;1254;74102;-40
2023/02/21 10:05:08;;;;;;;8.60;2.50;;;;;;;6.46;68.04;97249.34;107381;1253;69984;-40
2023/02/21 10:07:42;;;;;;;7.10;2.10;;;;;;;6.42;68.26;97251.50;107593;1253;73628;-41
2023/02/21 10:10:34;;;;;;;9.40;2.20;;;;;;;6.38;67.63;97246.42;107473;1253;59685;-41
2023/02/21 10:13:34;;;;;;;6.30;2.50;;;;;;;6.34;66.91;97247.40;107666;1254;59650;-41
2023/02/21 10:16:03;;;;;;;9.50;3.20;;;;;;;6.36;66.64;97244.26;107535;1253;74040;-41
2023/02/21 10:18:43;;;;;;;6.00;2.30;;;;;;;6.36;66.91;97253.17;107660;1253;68858;-40
2023/02/21 10:21:16;;;;;;;6.50;1.80;;;;;;;6.33;66.86;97252.79;107682;1254;71761;-41
2023/02/21 10:23:45;;;;;;;8.00;2.40;;;;;;;6.24;67.27;97258.99;107709;1254;60738;-41
2023/02/21 10:26:20;;;;;;;5.20;1.90;;;;;;;6.13;68.24;97262.97;107681;1252;59628;-41
2023/02/21 10:28:47;;;;;;;5.20;1.70;;;;;;;6.06;68.32;97259.95;107622;1253;74228;-41
2023/02/21 10:31:23;;;;;;;7.00;2.30;;;;;;;6.04;68.79;97268.18;107679;1254;69966;-41
2023/02/21 10:33:50;;;;;;;11.10;2.50;;;;;;;5.98;69.57;97264.23;107544;1253;73687;-40
2023/02/21 10:36:18;;;;;;;6.10;2.10;;;;;;;5.88;70.37;97259.98;107630;1254;59749;-41
2023/02/21 10:39:22;;;;;;;8.00;2.30;;;;;;;5.78;71.78;97267.05;107658;1254;60903;-41
2023/02/21 10:41:49;;;;;;;5.10;1.90;;;;;;;5.74;72.20;97271.73;107449;1254;74206;-41
2023/02/21 10:44:25;;;;;;;7.60;2.00;;;;;;;5.75;72.88;97272.57;107560;1253;68206;-41
2023/02/21 10:46:57;;;;;;;6.90;2.50;;;;;;;5.75;73.21;97286.86;107664;1254;73604;-40
2023/02/21 10:49:30;;;;;;;8.10;2.50;;;;;;;5.74;73.84;97308.06;107655;1256;59666;-40
2023/02/21 10:52:12;;;;;;;4.30;2.00;;;;;;;5.72;74.71;97312.34;107717;1254;61559;-40
2023/02/21 10:54:39;;;;;;;8.10;1.90;;;;;;;5.62;73.80;97312.45;107672;1254;74031;-41
2023/02/21 10:57:07;;;;;;;4.70;1.90;;;;;;;5.46;74.10;97319.27;107615;1254;69660;-41
2023/02/21 10:59:36;;;;;;;3.30;1.50;;;;;;;5.28;74.67;97311.78;107645;1254;73909;-41
2023/02/21 11:02:31;;;;;;;4.10;1.20;;;;;;;5.08;75.09;97326.30;107585;1254;62199;-40
2023/02/21 11:05:13;;;;;;;4.70;1.50;;;;;;;4.92;76.17;97332.46;107613;1254;60332;-41
2023/02/21 11:07:41;;;;;;;5.70;1.70;;;;;;;4.87;77.26;97320.00;107554;1254;71835;-40
2023/02/21 11:10:41;;;;;;;4.00;1.60;;;;;;;4.81;78.16;97318.41;107611;1254;68896;-41
2023/02/21 11:13:19;;;;;;;7.30;2.20;;;;;;;4.80;78.88;97311.20;107457;1254;73695;-42
2023/02/21 11:15:47;;;;;;;4.00;1.90;;;;;;;4.88;79.32;97310.04;107589;1254;62408;-40
2023/02/21 11:18:15;;;;;;;5.90;2.10;;;;;;;5.01;79.17;97303.38;107553;1254;59537;-40
2023/02/21 11:20:42;;;;;;;5.30;1.90;;;;;;;5.11;78.38;97312.29;107655;1254;74030;-40
2023/02/21 11:23:18;;;;;;;7.30;2.20;;;;;;;5.20;78.36;97316.80;107647;1253;69948;-40
2023/02/21 11:25:46;;;;;;;5.10;2.00;;;;;;;5.32;78.28;97313.35;107563;1254;73874;-41
2023/02/21 11:28:13;;;;;;;5.00;2.10;;;;;;;5.45;77.79;97320.42;107521;1253;61477;-42
2023/02/21 11:30:58;;;;;;;5.80;2.30;;;;;;;5.54;77.45;97325.77;107650;1254;61546;-42
2023/02/21 11:33:25;;;;;;;4.30;2.00;;;;;;;5.59;77.76;97327.11;107615;1257;73999;-42
2023/02/21 11:36:06;;;;;;;4.30;2.00;;;;;;;5.59;77.76;97336.16;107585;1254;69622;-42
2023/02/21 11:38:46;;;;;;;5.60;2.10;;;;;;;5.62;77.65;97340.79;107582;1254;73866;-42
2023/02/21 11:41:23;;;;;;;6.50;2.00;;;;;;;5.60;77.07;97343.55;107609;1254;59803;-42
2023/02/21 11:43:51;;;;;;;4.30;1.90;;;;;;;5.55;77.94;97349.11;107588;1254;61561;-40
2023/02/21 11:46:39;;;;;;;;;;;;;;;5.44;78.02;97356.41;107684;1254;74267;-40
2023/02/21 11:49:12;;;;;;;6.20;1.60;;;;;;;5.35;78.22;97355.98;107525;1254;69782;-40
2023/02/21 11:51:46;;;;;;;5.20;1.50;;;;;;;5.29;78.68;97349.55;107570;1254;72496;-40
2023/02/21 11:54:13;;;;;;;6.20;1.90;;;;;;;5.29;78.95;97352.70;107620;1254;61253;-39
2023/02/21 11:56:48;;;;;;;7.50;2.10;;;;;;;5.32;79.29;97357.02;107610;1254;60954;-40
2023/02/21 11:59:29;;;;;;;5.20;2.10;;;;;;;5.41;79.55;97353.94;107586;1254;74197;-41
2023/02/21 12:02:10;;;;;;;4.80;1.80;;;;;;;5.52;78.81;97354.86;107529;1254;69691;-40
2023/02/21 12:05:11;;;;;;;6.50;1.90;;;;;;;5.51;78.66;97353.93;107541;1254;73548;-40
2023/02/21 12:07:56;;;;;;;4.80;1.70;;;;;;;5.48;77.98;97353.84;107556;1254;63036;-41
2023/02/21 12:10:45;;;;;;;4.70;1.60;;;;;;;5.48;77.20;97356.29;107477;1254;61511;-40
2023/02/21 12:13:41;;;;;;;4.10;1.60;;;;;;;5.55;76.32;97353.42;107592;1254;74310;-40
2023/02/21 12:16:48;;;;;;;4.60;1.50;;;;;;;5.64;75.83;97359.84;107487;1254;69770;-41
2023/02/21 12:19:46;;;;;;;2.30;1.20;;;;;;;5.70;74.67;97353.27;107233;1254;74140;-41
2023/02/21 12:22:27;;;;;;;3.30;1.30;;;;;;;5.90;73.98;97360.55;107611;1254;59793;-41
2023/02/21 12:25:17;;;;;;;4.80;1.70;;;;;;;6.24;73.34;97355.02;107651;1257;61450;-40
2023/02/21 12:27:52;;;;;;;4.30;1.60;;;;;;;6.80;71.79;97352.23;107464;1254;74600;-41
2023/02/21 12:30:26;;;;;;;4.50;1.60;;;;;;;7.31;69.87;97352.70;107595;1254;67798;-41
2023/02/21 12:33:09;;;;;;;2.80;1.30;;;;;;;7.72;67.71;97351.58;107578;1254;71312;-41
2023/02/21 12:36:27;;;;;;;4.00;1.30;;;;;;;7.95;66.29;97361.38;107475;1254;60696;-41
2023/02/21 12:39:16;;;;;;;3.30;1.20;;;;;;;8.06;65.78;97363.27;107301;1254;61554;-41
2023/02/21 12:41:44;;;;;;;3.10;1.60;;;;;;;8.13;65.55;97369.10;107584;1254;74184;-41
2023/02/21 12:44:37;;;;;;;4.30;1.70;;;;;;;8.11;65.10;97377.14;107640;1254;69764;-41
2023/02/21 12:47:20;;;;;;;3.70;1.80;;;;;;;7.91;65.53;97382.67;107624;1254;72371;-41
2023/02/21 12:50:12;;;;;;;6.60;2.20;;;;;;;7.61;66.42;97379.80;107612;1254;61599;-41
2023/02/21 12:52:48;;;;;;;4.60;1.50;;;;;;;7.34;67.57;97384.59;106876;1254;1003837;-41
2023/02/21 12:55:23;;;;;;;3.60;1.40;;;;;;;7.12;67.99;97384.12;107618;1257;72542;-41
2023/02/21 12:58:09;;;;;;;5.70;1.60;;;;;;;7.02;69.13;97388.65;107334;1254;69917;-41
2023/02/21 13:00:43;;;;;;;5.00;1.80;;;;;;;6.91;69.56;97388.73;107632;1254;72909;-41
2023/02/21 13:03:26;;;;;;;3.70;1.70;;;;;;;6.89;70.17;97391.33;107642;1254;59356;-41
2023/02/21 13:05:59;;;;;;;3.30;1.60;;;;;;;7.12;69.64;97383.42;107597;1254;61424;-41
2023/02/21 13:09:04;;;;;;;4.70;1.60;;;;;;;7.45;67.67;97381.97;107626;1254;72898;-41
2023/02/21 13:11:34;;;;;;;5.40;2.00;;;;;;;7.85;66.78;97383.77;107330;1254;69799;-41
2023/02/21 13:14:01;;;;;;;5.20;2.00;;;;;;;8.21;65.30;97385.66;107608;1254;72190;-41
2023/02/21 13:16:28;;;;;;;6.80;1.90;;;;;;;8.58;63.97;97387.77;107649;1259;60444;-41
2023/02/21 13:19:01;;;;;;;4.40;1.70;;;;;;;8.83;62.95;97384.99;107533;1254;60428;-41
2023/02/21 13:21:48;;;;;;;2.80;1.60;;;;;;;9.02;61.40;97390.52;107593;1254;75052;-41
2023/02/21 13:24:53;;;;;;;3.40;1.70;;;;;;;9.22;59.69;97393.00;107620;1254;69921;-41
2023/02/21 13:27:35;;;;;;;6.00;1.90;;;;;;;9.30;58.27;97399.05;107031;1259;71543;-41
2023/02/21 13:30:15;;;;;;;4.30;2.00;;;;;;;9.01;58.56;97409.45;107506;1254;61523;-41
2023/02/21 13:32:51;;;;;;;4.90;2.00;;;;;;;8.52;59.27;97418.89;107627;1254;61228;-41
2023/02/21 13:35:36;;;;;;;4.30;1.50;;;;;;;8.00;60.24;97412.48;107620;1254;75070;-41
2023/02/21 13:38:05;;;;;;;2.80;1.30;;;;;;;7.54;61.51;97412.77;107668;1254;69831;-41
2023/02/21 13:40:46;;;;;;;2.50;1.20;;;;;;;7.29;62.36;97418.25;107550;1257;71798;-40
2023/02/21 13:43:31;;;;;;;4.00;1.30;;;;;;;7.29;62.70;97419.71;107525;1254;62172;-40
2023/02/21 13:46:29;;;;;;;3.40;1.40;;;;;;;7.47;62.00;97422.88;107589;1254;60379;-41
2023/02/21 13:49:33;;;;;;;3.50;1.10;;;;;;;7.79;61.21;97416.98;107364;1254;75115;-40
2023/02/21 13:52:22;;;;;;;3.20;1.30;;;;;;;8.26;59.98;97432.92;107415;1254;69919;-41
2023/02/21 13:55:13;;;;;;;4.90;1.40;;;;;;;8.57;58.30;97430.74;107510;1258;72148;-41
2023/02/21 13:58:06;;;;;;;1.70;0.90;;;;;;;8.59;57.96;97436.98;107519;1254;60515;-40
2023/02/21 14:00:33;;;;;;;3.00;1.10;;;;;;;8.29;58.52;97449.50;107191;1254;61429;-40
2023/02/21 14:03:02;;;;;;;2.50;1.10;;;;;;;7.89;59.41;97454.34;107580;1254;73188;-40
2023/02/21 14:05:45;;;;;;;3.30;1.20;;;;;;;7.57;60.59;97456.15;106746;1254;1003139;-40
2023/02/21 14:08:30;;;;;;;2.80;1.20;;;;;;;7.35;61.63;97460.75;107385;1253;73690;-41
2023/02/21 14:11:06;;;;;;;3.00;1.60;;;;;;;7.25;61.74;97466.21;107393;1253;60271;-41
2023/02/21 14:13:36;;;;;;;3.70;1.40;;;;;;;7.09;62.17;97466.80;107475;1253;60358;-41
2023/02/21 14:16:07;;;;;;;4.80;1.50;;;;;;;6.90;62.76;97473.15;107390;1254;73663;-41
2023/02/21 14:18:37;;;;;;;4.10;1.40;;;;;;;6.76;63.40;97474.48;107420;1258;69734;-41
2023/02/21 14:21:38;;;;;;;3.10;1.40;;;;;;;6.64;63.80;97473.67;107486;1253;73631;-41
2023/02/21 14:24:09;;;;;;;4.40;1.70;;;;;;;6.47;64.50;97480.67;107520;1254;62492;-41
2023/02/21 14:26:49;;;;;;;3.50;1.70;;;;;;;6.38;65.25;97481.79;107509;1254;60332;-41
2023/02/21 14:29:36;;;;;;;4.60;1.90;;;;;;;6.33;67.17;97481.91;107431;1259;74106;-41